»·PEaware :: DAL542 KLAS-KVCV

DAL542 :: KLAS-KVCV

FLIGHT INFORMATION

Flight Status: Arrived
Operator:
Delta Air Lines
More flights by this operator :: More flights under this callsign
Pilot: Erik K. (18332)
Aircraft: BOEING 737-800
(B738)
More flights by this aircraft type
Origin: KLAS McCarran Intl
United States
Destination: KVCV Socal Logistics
United States
More flights between these airports :: More routes between these airports
Route: +BOACH8 HEC
File this flight plan on PilotEdge
Remarks:
Altitude:
(Current/Filed)
0ft
Speed:
(Current/Filed)
0kts
Departed: 26-Sep-18 09:00 PM
Arrived: 26-Sep-18 09:54 PM
Distance/Time
Traveled:
141nm/0:53
Distance/Time
To Go:
Arrived

Flight Plot

Page will automatically refresh every two minutes.

Flight plan parsing failed; only flown route is shown


Map Options




Map Legend


Flown Route
Filed Route
Departure Airport
Arrival Airport
Navaid (VOR, NDB)
Fix

Horizontal Profiles

Position Reports

Time Latitude Longitude Heading Altitude Ground
Speed
26-Sep-18 20:18 36.082452 -115.153333 36 2189ft 0kts
26-Sep-18 20:19 36.082452 -115.153333 36 2189ft 0kts
26-Sep-18 20:20 36.082452 -115.153333 36 2189ft 0kts
26-Sep-18 20:21 36.082452 -115.153333 36 2189ft 0kts
26-Sep-18 20:22 36.082452 -115.153333 36 2189ft 0kts
26-Sep-18 20:23 36.082452 -115.153333 36 2189ft 0kts
26-Sep-18 20:24 36.082452 -115.153333 36 2189ft 0kts
26-Sep-18 20:25 36.082452 -115.153333 36 2189ft 0kts
26-Sep-18 20:26 36.082452 -115.153333 36 2189ft 0kts
26-Sep-18 20:27 36.082452 -115.153333 36 2189ft 0kts
26-Sep-18 20:28 36.082452 -115.153333 36 2189ft 0kts
26-Sep-18 20:29 36.082452 -115.153333 36 2189ft 0kts
26-Sep-18 20:30 36.082452 -115.153333 36 2189ft 0kts
26-Sep-18 20:31 36.082452 -115.153333 36 2189ft 0kts
26-Sep-18 20:32 36.082452 -115.153333 36 2189ft 0kts
26-Sep-18 20:33 36.082452 -115.153333 36 2189ft 0kts
26-Sep-18 20:34 36.082452 -115.153333 36 2189ft 0kts
26-Sep-18 20:35 36.082452 -115.153333 36 2189ft 0kts
26-Sep-18 20:36 36.082452 -115.153333 36 2189ft 0kts
26-Sep-18 20:37 36.082197 -115.153566 23 2189ft 2kts
26-Sep-18 20:38 36.081881 -115.153173 247 2189ft 0kts
26-Sep-18 20:39 36.081919 -115.153086 243 2189ft 0kts
26-Sep-18 20:40 36.081934 -115.153050 243 2189ft 0kts
26-Sep-18 20:41 36.081844 -115.153268 243 2189ft 0kts
26-Sep-18 20:42 36.081844 -115.153268 243 2189ft 0kts
26-Sep-18 20:43 36.081627 -115.153771 242 2189ft 3kts
26-Sep-18 20:44 36.079885 -115.153971 155 2189ft 6kts
26-Sep-18 20:45 36.078786 -115.152626 95 2189ft 4kts
26-Sep-18 20:46 36.078708 -115.149595 94 2189ft 14kts
26-Sep-18 20:47 36.078316 -115.143959 93 2189ft 14kts
26-Sep-18 20:48 36.078282 -115.139507 89 2189ft 12kts
26-Sep-18 20:49 36.078274 -115.135695 89 2189ft 10kts
26-Sep-18 20:50 36.078286 -115.132309 90 2189ft 10kts
26-Sep-18 20:51 36.078328 -115.127088 92 2189ft 18kts
26-Sep-18 20:52 36.077822 -115.121944 130 2189ft 4kts
26-Sep-18 20:53 36.077803 -115.121918 130 2189ft 0kts
26-Sep-18 20:54 36.077803 -115.121918 130 2189ft 0kts
26-Sep-18 20:55 36.077803 -115.121918 130 2189ft 0kts
26-Sep-18 20:56 36.077803 -115.121918 130 2189ft 0kts
26-Sep-18 20:57 36.077803 -115.121918 130 2189ft 0kts
26-Sep-18 20:58 36.077803 -115.121918 130 2189ft 0kts
26-Sep-18 20:59 36.077803 -115.121918 130 2189ft 0kts
26-Sep-18 21:00 36.077803 -115.121918 130 2189ft 0kts
26-Sep-18 21:01 36.076545 -115.121491 235 2189ft 12kts
26-Sep-18 21:02 36.076455 -115.134332 270 2189ft 135kts
26-Sep-18 21:03 36.076797 -115.198195 269 3809ft 243kts
26-Sep-18 21:04 36.040760 -115.273232 204 6935ft 290kts
26-Sep-18 21:05 35.965995 -115.305900 195 7009ft 287kts
26-Sep-18 21:06 35.886646 -115.313728 185 7758ft 296kts
26-Sep-18 21:07 35.806948 -115.311950 174 11677ft 297kts
26-Sep-18 21:08 35.723420 -115.301154 175 15080ft 313kts
26-Sep-18 21:09 35.645202 -115.337859 228 16035ft 313kts
26-Sep-18 21:10 35.586735 -115.416401 229 16027ft 312kts
26-Sep-18 21:11 35.528264 -115.495239 229 16026ft 312kts
26-Sep-18 21:12 35.470017 -115.573449 229 16036ft 312kts
26-Sep-18 21:13 35.411547 -115.651709 228 16036ft 312kts
26-Sep-18 21:14 35.353488 -115.729214 228 16035ft 312kts
26-Sep-18 21:15 35.294779 -115.807380 228 16027ft 310kts
26-Sep-18 21:16 35.236391 -115.884934 228 14208ft 318kts
26-Sep-18 21:17 35.175477 -115.965655 228 12034ft 328kts
26-Sep-18 21:18 35.114277 -116.046524 228 10116ft 323kts
26-Sep-18 21:19 35.057310 -116.121591 228 10025ft 295kts
26-Sep-18 21:20 35.001339 -116.195250 227 10031ft 303kts
26-Sep-18 21:21 34.943989 -116.270530 227 10020ft 303kts
26-Sep-18 21:22 34.887137 -116.344977 227 9999ft 303kts
26-Sep-18 21:23 34.830102 -116.419484 227 9983ft 306kts
26-Sep-18 21:24 34.796416 -116.507396 270 9989ft 312kts
26-Sep-18 21:25 34.796850 -116.611909 271 9169ft 308kts
26-Sep-18 21:26 34.797368 -116.704190 271 7984ft 299kts
26-Sep-18 21:27 34.797769 -116.804047 271 7978ft 287kts
26-Sep-18 21:28 34.798053 -116.901763 271 7982ft 291kts
26-Sep-18 21:29 34.798227 -117.000328 271 7995ft 290kts
26-Sep-18 21:30 34.798305 -117.098115 271 8009ft 289kts
26-Sep-18 21:31 34.798289 -117.193956 271 7027ft 279kts
26-Sep-18 21:32 34.798212 -117.288663 270 7008ft 289kts
26-Sep-18 21:33 34.771612 -117.367069 212 6900ft 249kts
26-Sep-18 21:34 34.722674 -117.420408 223 6537ft 231kts
26-Sep-18 21:35 34.669568 -117.411790 143 5915ft 226kts
26-Sep-18 21:36 34.608037 -117.386120 196 4223ft 242kts
26-Sep-18 21:37 34.548184 -117.406345 225 4245ft 246kts
26-Sep-18 21:38 34.549467 -117.468326 316 5051ft 200kts
26-Sep-18 21:39 34.590706 -117.514269 318 5981ft 206kts
26-Sep-18 21:40 34.632836 -117.561077 318 5988ft 206kts
26-Sep-18 21:41 34.675371 -117.607062 334 5830ft 205kts
26-Sep-18 21:42 34.716132 -117.579880 88 5135ft 192kts
26-Sep-18 21:43 34.677502 -117.549059 204 4995ft 202kts
26-Sep-18 21:44 34.634007 -117.526688 98 4992ft 199kts
26-Sep-18 21:45 34.663936 -117.491191 354 5018ft 173kts
26-Sep-18 21:46 34.711833 -117.499851 351 4990ft 174kts
26-Sep-18 21:47 34.759563 -117.508920 351 4990ft 174kts
26-Sep-18 21:48 34.807468 -117.517985 354 4989ft 174kts
26-Sep-18 21:49 34.832118 -117.479851 81 4987ft 160kts
26-Sep-18 21:50 34.837041 -117.426223 100 4976ft 160kts
26-Sep-18 21:51 34.803134 -117.394549 151 4985ft 154kts
26-Sep-18 21:52 34.762247 -117.386910 182 4284ft 155kts
26-Sep-18 21:53 34.717013 -117.387722 179 4294ft 166kts
26-Sep-18 21:54 34.670616 -117.387314 180 3885ft 167kts
26-Sep-18 21:55 34.628214 -117.386584 180 3062ft 146kts
26-Sep-18 21:56 34.605139 -117.386646 181 2892ft 38kts
26-Sep-18 21:57 34.594945 -117.385727 105 2892ft 24kts
26-Sep-18 21:58 34.594894 -117.384921 89 2892ft 0kts
26-Sep-18 21:59 34.594894 -117.384921 89 2892ft 0kts
26-Sep-18 22:00 34.594290 -117.382966 161 2892ft 11kts
26-Sep-18 22:01 34.591085 -117.379341 134 2892ft 19kts
26-Sep-18 22:02 34.589268 -117.375291 52 2892ft 0kts

Navigation Log

Ident Type
Flight plan parsing failed, navigation log unavailable